Time;durP1;ratioP1;P1;durP2;ratioP2;P2;SDS_P1;SDS_P2;PMS_P1;PMS_P2;Temp;Humidity;BMP_temperature;BMP_pressure;BME280_temperature;BME280_humidity;BME280_pressure;Samples;Min_cycle;Max_cycle;Signal;HPM_P1;HPM_P2
2022/05/01 00:00:47;;;;;;;24.23;22.70;;;;;;;;;;5057539;28;20938;-88
2022/05/01 00:03:30;;;;;;;23.40;21.90;;;;;;;;;;5056729;28;20501;-86
2022/05/01 00:05:59;;;;;;;23.40;21.90;;;;;;;;;;5057466;28;20439;-88
2022/05/01 00:08:27;;;;;;;24.03;22.47;;;;;;;;;;5057422;28;20912;-88
2022/05/01 00:10:54;;;;;;;23.43;22.03;;;;;;;;;;5057675;28;20448;-88
2022/05/01 00:13:22;;;;;;;23.30;21.90;;;;;;;;;;5057411;28;20421;-88
2022/05/01 00:15:50;;;;;;;24.50;22.90;;;;;;;;;;5057621;28;20450;-88
2022/05/01 00:18:18;;;;;;;23.93;22.50;;;;;;;;;;5056461;28;20414;-88
2022/05/01 00:20:45;;;;;;;23.10;21.80;;;;;;;;;;5057142;28;20901;-88
2022/05/01 00:23:14;;;;;;;24.77;23.27;;;;;;;;;;5057190;28;20413;-88
2022/05/01 00:25:42;;;;;;;24.43;23.03;;;;;;;;;;5057002;28;20491;-87
2022/05/01 00:28:10;;;;;;;23.63;22.30;;;;;;;;;;5056723;28;20457;-88
2022/05/01 00:30:37;;;;;;;24.10;22.37;;;;;;;;;;5057392;28;20439;-88
2022/05/01 00:38:36;;;;;;;24.30;22.80;;;;;;;;;;5056940;28;20408;-88
2022/05/01 00:41:05;;;;;;;23.83;22.30;;;;;;;;;;5056799;28;20962;-88
2022/05/01 00:43:32;;;;;;;25.07;23.30;;;;;;;;;;5072277;28;20472;-87
2022/05/01 00:45:59;;;;;;;24.77;23.07;;;;;;;;;;5056159;28;20422;-88
2022/05/01 00:48:27;;;;;;;23.90;22.40;;;;;;;;;;5056569;28;20447;-89
2022/05/01 00:50:54;;;;;;;23.93;22.63;;;;;;;;;;5056767;28;20418;-88
2022/05/01 00:53:21;;;;;;;23.30;22.00;;;;;;;;;;5056317;28;20425;-88
2022/05/01 00:55:50;;;;;;;24.77;23.10;;;;;;;;;;5056338;28;20456;-88
2022/05/01 00:58:18;;;;;;;24.33;22.73;;;;;;;;;;5056567;28;20431;-89
2022/05/01 01:00:45;;;;;;;24.77;23.17;;;;;;;;;;5055947;28;20461;-88
2022/05/01 01:03:12;;;;;;;24.13;22.60;;;;;;;;;;5056618;28;20783;-88
2022/05/01 01:05:39;;;;;;;25.00;23.40;;;;;;;;;;5056426;28;20440;-88
2022/05/01 01:08:07;;;;;;;25.57;23.90;;;;;;;;;;5056022;28;20913;-88
2022/05/01 01:10:35;;;;;;;23.57;22.03;;;;;;;;;;5055988;28;20410;-88
2022/05/01 01:13:03;;;;;;;24.20;22.70;;;;;;;;;;5056189;28;20403;-90
2022/05/01 01:15:31;;;;;;;25.47;23.67;;;;;;;;;;5056465;28;20464;-88
2022/05/01 01:17:59;;;;;;;25.67;24.17;;;;;;;;;;5056088;28;20436;-88
2022/05/01 01:20:28;;;;;;;23.80;22.30;;;;;;;;;;5055700;28;20487;-88
2022/05/01 01:22:58;;;;;;;25.20;23.63;;;;;;;;;;5055570;28;20509;-87
2022/05/01 01:25:26;;;;;;;24.07;22.77;;;;;;;;;;5055788;28;20459;-88
2022/05/01 01:27:55;;;;;;;25.30;23.80;;;;;;;;;;5056347;28;20406;-88
2022/05/01 01:33:07;;;;;;;25.60;24.07;;;;;;;;;;5055830;28;20405;-88
2022/05/01 01:35:35;;;;;;;25.27;23.47;;;;;;;;;;5055985;28;20797;-88
2022/05/01 01:38:04;;;;;;;25.13;23.50;;;;;;;;;;5055831;28;20413;-88
2022/05/01 01:40:33;;;;;;;25.30;23.80;;;;;;;;;;5054831;28;20484;-88
2022/05/01 01:43:00;;;;;;;24.97;23.57;;;;;;;;;;5055821;28;20410;-88
2022/05/01 01:45:29;;;;;;;26.13;24.00;;;;;;;;;;5055765;28;20432;-88
2022/05/01 01:47:57;;;;;;;25.60;23.97;;;;;;;;;;5055955;28;20439;-88
2022/05/01 01:50:25;;;;;;;24.47;23.07;;;;;;;;;;5055624;28;20414;-87
2022/05/01 01:52:53;;;;;;;25.10;23.60;;;;;;;;;;5055319;28;20429;-89
2022/05/01 01:55:22;;;;;;;25.27;23.67;;;;;;;;;;5055732;28;20441;-88
2022/05/01 01:57:49;;;;;;;25.67;23.97;;;;;;;;;;5055804;28;20436;-88
2022/05/01 02:00:17;;;;;;;25.00;23.47;;;;;;;;;;5054928;28;20421;-88
2022/05/01 02:02:44;;;;;;;24.53;23.03;;;;;;;;;;5055293;28;20444;-88
2022/05/01 02:05:11;;;;;;;25.37;23.57;;;;;;;;;;5055532;28;20414;-88
2022/05/01 02:07:40;;;;;;;24.53;22.93;;;;;;;;;;5054946;28;21213;-88
2022/05/01 02:10:08;;;;;;;24.40;22.80;;;;;;;;;;5055464;28;20422;-89
2022/05/01 02:12:37;;;;;;;25.20;23.60;;;;;;;;;;5055283;28;20446;-88
2022/05/01 02:15:05;;;;;;;25.43;23.73;;;;;;;;;;5054918;28;20984;-88
2022/05/01 02:17:33;;;;;;;26.03;24.33;;;;;;;;;;5055091;28;20500;-88
2022/05/01 02:20:00;;;;;;;26.07;24.23;;;;;;;;;;5054971;28;20429;-89
2022/05/01 02:22:28;;;;;;;25.40;23.60;;;;;;;;;;5054922;28;20461;-89
2022/05/01 02:24:55;;;;;;;25.03;23.53;;;;;;;;;;5054765;28;20457;-89
2022/05/01 02:27:23;;;;;;;25.73;24.13;;;;;;;;;;5054898;28;20764;-88
2022/05/01 02:29:51;;;;;;;25.77;24.07;;;;;;;;;;5054501;28;20884;-87
2022/05/01 02:32:19;;;;;;;26.57;24.57;;;;;;;;;;5054516;28;20785;-89
2022/05/01 02:34:46;;;;;;;26.10;24.20;;;;;;;;;;5054410;28;20440;-88
2022/05/01 02:37:13;;;;;;;26.87;25.07;;;;;;;;;;5054700;28;20413;-88
2022/05/01 02:39:41;;;;;;;28.13;26.00;;;;;;;;;;5054573;28;20418;-88
2022/05/01 02:42:08;;;;;;;26.00;24.30;;;;;;;;;;5054424;28;20460;-88
2022/05/01 02:44:36;;;;;;;26.83;24.67;;;;;;;;;;5054573;28;20426;-88
2022/05/01 02:47:06;;;;;;;26.10;24.47;;;;;;;;;;5054272;28;20498;-88
2022/05/01 02:49:35;;;;;;;26.00;24.23;;;;;;;;;;5054041;28;20931;-88
2022/05/01 02:52:02;;;;;;;25.93;24.20;;;;;;;;;;5054382;28;20442;-88
2022/05/01 02:54:29;;;;;;;28.00;26.13;;;;;;;;;;5054038;28;20446;-88
2022/05/01 02:56:57;;;;;;;27.50;25.60;;;;;;;;;;5054118;28;20875;-88
2022/05/01 02:59:24;;;;;;;26.20;24.37;;;;;;;;;;5054288;28;21164;-88
2022/05/01 03:01:51;;;;;;;25.90;24.20;;;;;;;;;;5054415;28;20468;-88
2022/05/01 03:04:20;;;;;;;26.83;25.13;;;;;;;;;;5054097;28;20402;-88
2022/05/01 03:06:48;;;;;;;26.53;24.63;;;;;;;;;;5054274;28;20446;-88
2022/05/01 03:09:15;;;;;;;25.90;24.20;;;;;;;;;;5069322;28;21007;-88
2022/05/01 03:11:42;;;;;;;26.07;24.40;;;;;;;;;;5053529;28;20403;-88
2022/05/01 03:14:10;;;;;;;27.20;25.20;;;;;;;;;;5054106;28;20910;-87
2022/05/01 03:16:37;;;;;;;25.67;24.07;;;;;;;;;;5053685;28;20495;-88
2022/05/01 03:24:36;;;;;;;27.13;25.30;;;;;;;;;;5053998;28;20452;-88
2022/05/01 03:27:03;;;;;;;27.20;25.30;;;;;;;;;;5053662;28;20406;-88
2022/05/01 03:29:31;;;;;;;26.70;24.90;;;;;;;;;;5053960;28;20406;-88
2022/05/01 03:31:58;;;;;;;27.67;25.67;;;;;;;;;;5053676;28;20430;-88
2022/05/01 03:34:26;;;;;;;27.43;25.47;;;;;;;;;;5053438;28;20880;-88
2022/05/01 03:36:55;;;;;;;26.80;24.93;;;;;;;;;;5053728;28;20459;-88
2022/05/01 03:39:23;;;;;;;27.60;25.80;;;;;;;;;;5053418;28;20402;-88
2022/05/01 03:41:50;;;;;;;26.17;24.47;;;;;;;;;;5054238;28;20461;-89
2022/05/01 03:44:17;;;;;;;26.57;24.77;;;;;;;;;;5053724;28;20451;-89
2022/05/01 03:46:45;;;;;;;27.27;25.37;;;;;;;;;;5053873;28;20422;-88
2022/05/01 03:49:12;;;;;;;28.47;26.47;;;;;;;;;;5053410;28;20414;-88
2022/05/01 03:51:39;;;;;;;28.63;26.30;;;;;;;;;;5053512;28;20962;-88
2022/05/01 03:54:08;;;;;;;27.87;26.00;;;;;;;;;;5053573;28;20414;-88
2022/05/01 03:56:35;;;;;;;27.30;25.53;;;;;;;;;;5053273;28;20453;-88
2022/05/01 03:59:04;;;;;;;27.77;25.87;;;;;;;;;;5053578;28;20447;-88
2022/05/01 04:01:33;;;;;;;28.67;26.57;;;;;;;;;;5068784;28;20454;-88
2022/05/01 04:04:00;;;;;;;27.03;25.13;;;;;;;;;;5053382;28;20418;-88
2022/05/01 04:06:28;;;;;;;27.63;25.73;;;;;;;;;;5053195;28;20445;-88
2022/05/01 04:08:55;;;;;;;27.33;25.43;;;;;;;;;;5053154;28;20410;-88
2022/05/01 04:11:25;;;;;;;27.73;25.83;;;;;;;;;;5053238;28;20410;-87
2022/05/01 04:13:52;;;;;;;28.53;26.63;;;;;;;;;;5053347;28;20408;-88
2022/05/01 04:16:20;;;;;;;29.00;26.47;;;;;;;;;;5053054;28;20928;-87
2022/05/01 04:18:47;;;;;;;29.03;27.17;;;;;;;;;;5053151;28;20422;-88
2022/05/01 04:21:15;;;;;;;29.43;27.40;;;;;;;;;;5053942;28;20888;-87
2022/05/01 04:23:42;;;;;;;27.63;25.53;;;;;;;;;;5055832;28;20406;-87
2022/05/01 04:26:09;;;;;;;29.60;27.40;;;;;;;;;;5056976;28;20445;-88
2022/05/01 04:28:38;;;;;;;29.33;27.23;;;;;;;;;;5057020;28;20928;-88
2022/05/01 04:31:06;;;;;;;28.83;26.60;;;;;;;;;;5057029;28;20465;-88
2022/05/01 04:33:33;;;;;;;29.40;26.90;;;;;;;;;;5056605;28;20929;-87
2022/05/01 04:36:01;;;;;;;29.23;26.97;;;;;;;;;;5057285;28;20435;-88
2022/05/01 04:38:28;;;;;;;28.60;26.50;;;;;;;;;;5056738;28;20414;-88
2022/05/01 04:40:58;;;;;;;28.30;26.20;;;;;;;;;;5056825;28;20431;-88
2022/05/01 04:43:26;;;;;;;28.83;26.77;;;;;;;;;;5056415;28;20461;-86
2022/05/01 04:45:55;;;;;;;29.80;27.43;;;;;;;;;;5057167;28;20733;-88
2022/05/01 04:48:23;;;;;;;29.67;27.60;;;;;;;;;;5056879;28;20488;-88
2022/05/01 04:50:51;;;;;;;29.20;27.03;;;;;;;;;;5056421;28;20807;-87
2022/05/01 04:53:20;;;;;;;29.20;27.20;;;;;;;;;;5056669;28;20426;-88
2022/05/01 04:55:48;;;;;;;29.93;27.83;;;;;;;;;;5056408;28;20476;-88
2022/05/01 04:58:17;;;;;;;29.50;27.30;;;;;;;;;;5056278;28;20471;-88
2022/05/01 05:00:45;;;;;;;30.33;27.93;;;;;;;;;;5056575;28;20451;-88
2022/05/01 05:03:14;;;;;;;30.60;28.43;;;;;;;;;;5056125;28;20494;-88
2022/05/01 05:05:41;;;;;;;29.90;27.63;;;;;;;;;;5056417;28;20480;-88
2022/05/01 05:10:54;;;;;;;29.37;27.23;;;;;;;;;;5056034;28;20406;-88
2022/05/01 05:13:25;;;;;;;28.90;26.80;;;;;;;;;;5055918;28;20895;-88
2022/05/01 05:15:53;;;;;;;30.13;27.87;;;;;;;;;;5056248;28;20840;-88
2022/05/01 05:18:22;;;;;;;30.43;28.37;;;;;;;;;;5056112;28;20463;-88
2022/05/01 05:20:49;;;;;;;30.77;28.37;;;;;;;;;;5055922;28;20454;-88
2022/05/01 05:23:17;;;;;;;30.57;28.00;;;;;;;;;;5056051;28;20462;-88
2022/05/01 05:25:44;;;;;;;31.23;28.73;;;;;;;;;;5055918;28;20450;-88
2022/05/01 05:28:12;;;;;;;29.93;27.83;;;;;;;;;;5056056;28;20472;-88
2022/05/01 05:30:39;;;;;;;30.17;27.93;;;;;;;;;;5055856;28;20461;-88
2022/05/01 05:33:07;;;;;;;29.67;27.53;;;;;;;;;;5055832;28;20422;-88
2022/05/01 05:35:36;;;;;;;29.53;27.43;;;;;;;;;;5054751;28;20437;-88
2022/05/01 05:38:03;;;;;;;31.20;28.80;;;;;;;;;;5071233;28;20945;-88
2022/05/01 05:40:31;;;;;;;29.87;27.80;;;;;;;;;;5055755;28;20410;-88
2022/05/01 05:42:58;;;;;;;30.20;28.10;;;;;;;;;;5055668;28;20511;-88
2022/05/01 05:45:26;;;;;;;30.37;28.17;;;;;;;;;;5055569;28;20451;-88
2022/05/01 05:47:53;;;;;;;29.60;27.40;;;;;;;;;;5055605;28;20414;-88
2022/05/01 05:50:21;;;;;;;30.30;27.83;;;;;;;;;;5055667;28;20418;-88
2022/05/01 05:52:50;;;;;;;30.47;28.10;;;;;;;;;;5055383;28;20905;-87
2022/05/01 05:55:17;;;;;;;30.60;28.50;;;;;;;;;;5055617;28;20447;-87
2022/05/01 05:57:45;;;;;;;30.73;28.33;;;;;;;;;;5055770;28;20827;-86
2022/05/01 06:00:13;;;;;;;30.40;28.10;;;;;;;;;;5055344;28;20455;-88
2022/05/01 06:02:41;;;;;;;29.67;27.47;;;;;;;;;;5054662;28;20486;-87
2022/05/01 06:05:08;;;;;;;30.70;28.50;;;;;;;;;;5055273;28;20851;-88
2022/05/01 06:07:36;;;;;;;29.63;27.27;;;;;;;;;;5055510;28;20458;-88
2022/05/01 06:10:05;;;;;;;28.20;26.20;;;;;;;;;;5055194;28;20410;-88
2022/05/01 06:12:32;;;;;;;28.73;26.63;;;;;;;;;;5055014;28;20509;-88
2022/05/01 06:15:00;;;;;;;29.13;26.90;;;;;;;;;;5055112;28;20436;-88
2022/05/01 06:17:27;;;;;;;28.27;26.37;;;;;;;;;;5055128;28;20410;-88
2022/05/01 06:19:54;;;;;;;30.10;27.73;;;;;;;;;;5054782;28;20438;-88
2022/05/01 06:22:22;;;;;;;28.70;26.50;;;;;;;;;;5054632;28;20980;-88
2022/05/01 06:24:49;;;;;;;29.77;27.30;;;;;;;;;;5054961;28;20224;-88
2022/05/01 06:27:19;;;;;;;30.57;27.97;;;;;;;;;;5053705;28;20937;-87
2022/05/01 06:29:46;;;;;;;29.30;27.20;;;;;;;;;;5054674;28;20437;-89
2022/05/01 06:32:15;;;;;;;29.53;27.43;;;;;;;;;;5054426;28;20421;-88
2022/05/01 06:34:43;;;;;;;29.77;27.60;;;;;;;;;;5054757;28;21011;-88
2022/05/01 06:37:10;;;;;;;28.57;26.60;;;;;;;;;;5054715;28;20456;-88
2022/05/01 06:39:38;;;;;;;28.53;26.60;;;;;;;;;;5054612;28;20466;-88
2022/05/01 06:42:06;;;;;;;28.37;26.27;;;;;;;;;;5054349;28;20456;-87
2022/05/01 06:44:35;;;;;;;28.83;26.53;;;;;;;;;;5054308;28;20434;-88
2022/05/01 06:47:02;;;;;;;29.33;27.33;;;;;;;;;;5054313;28;20477;-88
2022/05/01 06:49:30;;;;;;;28.73;26.90;;;;;;;;;;5054402;28;20474;-86
2022/05/01 06:51:57;;;;;;;27.93;26.03;;;;;;;;;;5054150;28;20790;-87
2022/05/01 06:54:24;;;;;;;26.30;24.50;;;;;;;;;;5054459;28;20439;-86
2022/05/01 06:56:52;;;;;;;27.50;25.40;;;;;;;;;;5054434;28;20528;-88
2022/05/01 06:59:19;;;;;;;27.93;25.93;;;;;;;;;;5069833;28;20417;-88
2022/05/01 07:01:48;;;;;;;26.50;24.63;;;;;;;;;;5054067;28;20806;-87
2022/05/01 07:04:15;;;;;;;27.37;25.57;;;;;;;;;;5054455;28;20471;-88
2022/05/01 07:06:43;;;;;;;27.60;25.63;;;;;;;;;;5054207;28;20450;-87
2022/05/01 07:09:11;;;;;;;27.70;25.80;;;;;;;;;;5054206;28;20474;-89
2022/05/01 07:11:38;;;;;;;27.03;25.23;;;;;;;;;;5054309;28;20446;-89
2022/05/01 07:14:05;;;;;;;28.00;26.03;;;;;;;;;;5054196;28;20912;-88
2022/05/01 07:16:33;;;;;;;26.10;24.50;;;;;;;;;;5054047;28;20447;-87
2022/05/01 07:19:02;;;;;;;27.90;25.90;;;;;;;;;;5053689;28;20773;-86
2022/05/01 07:21:29;;;;;;;26.93;24.93;;;;;;;;;;5053914;28;20466;-86
2022/05/01 07:23:56;;;;;;;26.17;24.37;;;;;;;;;;5054165;28;20481;-86
2022/05/01 07:26:25;;;;;;;26.10;24.50;;;;;;;;;;5053475;28;20471;-86
2022/05/01 07:28:53;;;;;;;26.03;24.40;;;;;;;;;;5053293;28;20440;-86
2022/05/01 07:31:20;;;;;;;27.73;25.67;;;;;;;;;;5053728;28;20458;-86
2022/05/01 07:33:47;;;;;;;27.53;25.70;;;;;;;;;;5053350;28;20467;-90
2022/05/01 07:36:17;;;;;;;26.73;24.73;;;;;;;;;;5054582;28;20468;-91
2022/05/01 07:38:44;;;;;;;26.83;24.93;;;;;;;;;;5054267;28;20446;-92
2022/05/01 07:41:12;;;;;;;26.60;24.90;;;;;;;;;;5053092;28;20508;-91
2022/05/01 07:43:40;;;;;;;26.40;24.80;;;;;;;;;;5053235;28;20453;-91
2022/05/01 07:46:07;;;;;;;27.17;25.37;;;;;;;;;;5054457;28;20814;-92
2022/05/01 07:48:37;;;;;;;27.10;25.40;;;;;;;;;;5054268;28;20428;-92
2022/05/01 07:51:04;;;;;;;26.90;25.17;;;;;;;;;;5055656;28;20484;-88
2022/05/01 07:53:34;;;;;;;28.70;26.70;;;;;;;;;;5073268;28;20408;-86
2022/05/01 07:56:01;;;;;;;28.10;26.10;;;;;;;;;;5073788;28;20481;-86
2022/05/01 07:58:29;;;;;;;28.60;26.70;;;;;;;;;;5074264;28;20864;-87
2022/05/01 08:00:59;;;;;;;29.17;27.23;;;;;;;;;;5077462;28;20413;-87
2022/05/01 08:06:11;;;;;;;29.10;27.10;;;;;;;;;;5077831;28;20403;-87
2022/05/01 08:08:40;;;;;;;27.93;26.03;;;;;;;;;;5077112;28;20475;-85
2022/05/01 08:11:08;;;;;;;29.20;27.10;;;;;;;;;;5076992;28;20522;-84
2022/05/01 08:13:35;;;;;;;28.27;26.30;;;;;;;;;;5076868;28;20520;-84
2022/05/01 08:16:03;;;;;;;27.77;25.80;;;;;;;;;;5077246;28;20740;-90
2022/05/01 08:21:16;;;;;;;27.27;25.37;;;;;;;;;;5076708;28;20905;-86
2022/05/01 08:23:45;;;;;;;28.83;26.93;;;;;;;;;;5076579;28;20950;-94
2022/05/01 08:26:13;;;;;;;29.30;26.90;;;;;;;;;;5076006;28;20425;-87
2022/05/01 08:28:41;;;;;;;28.60;26.70;;;;;;;;;;5076702;28;20417;-88
2022/05/01 08:31:09;;;;;;;28.30;26.27;;;;;;;;;;5077170;28;20450;-89
2022/05/01 08:33:37;;;;;;;26.83;25.03;;;;;;;;;;5076998;28;20417;-95
2022/05/01 08:36:06;;;;;;;26.70;24.87;;;;;;;;;;5077454;28;20434;-96
2022/05/01 08:38:35;;;;;;;26.80;25.00;;;;;;;;;;5077373;28;20474;-89
2022/05/01 08:41:05;;;;;;;27.30;25.30;;;;;;;;;;5077189;28;20478;-91
2022/05/01 08:43:32;;;;;;;27.57;25.73;;;;;;;;;;5077096;28;20456;-92
2022/05/01 08:46:09;;;;;;;26.90;25.07;;;;;;;;;;5075155;28;20455;-91
2022/05/01 08:48:40;;;;;;;27.83;25.93;;;;;;;;;;5076277;28;20504;-85
2022/05/01 08:51:09;;;;;;;28.90;26.90;;;;;;;;;;5076607;28;20417;-94
2022/05/01 08:53:38;;;;;;;27.30;25.40;;;;;;;;;;5077508;28;20932;-85
2022/05/01 08:56:08;;;;;;;27.73;25.97;;;;;;;;;;5076362;28;20489;-84
2022/05/01 08:58:36;;;;;;;26.30;24.70;;;;;;;;;;5076401;28;20478;-85
2022/05/01 09:01:03;;;;;;;27.13;25.20;;;;;;;;;;5075848;28;20433;-86
2022/05/01 09:03:31;;;;;;;27.20;25.57;;;;;;;;;;5075699;28;20475;-85
2022/05/01 09:05:58;;;;;;;27.37;25.40;;;;;;;;;;5076088;28;20844;-86
2022/05/01 09:08:26;;;;;;;25.80;24.10;;;;;;;;;;5074710;28;20475;-86
2022/05/01 09:10:53;;;;;;;26.93;25.33;;;;;;;;;;5074630;28;20775;-86
2022/05/01 09:13:26;;;;;;;26.50;24.77;;;;;;;;;;5075955;28;20405;-84
2022/05/01 09:15:54;;;;;;;25.13;23.63;;;;;;;;;;5075802;28;20454;-86
2022/05/01 09:18:22;;;;;;;26.53;24.93;;;;;;;;;;5076001;28;20458;-83
2022/05/01 09:21:02;;;;;;;27.00;25.20;;;;;;;;;;5074636;28;20414;-80
2022/05/01 09:23:37;;;;;;;25.90;24.40;;;;;;;;;;5054743;28;20469;-80
2022/05/01 09:26:05;;;;;;;26.00;24.40;;;;;;;;;;5055131;28;20500;-80
2022/05/01 09:28:33;;;;;;;26.23;24.53;;;;;;;;;;5054972;28;20892;-80
2022/05/01 09:31:01;;;;;;;24.30;22.90;;;;;;;;;;5054924;28;20458;-79
2022/05/01 09:33:29;;;;;;;23.80;22.30;;;;;;;;;;5055250;28;20418;-82
2022/05/01 09:35:57;;;;;;;24.83;23.30;;;;;;;;;;5052950;28;20458;-81
2022/05/01 09:38:25;;;;;;;24.67;23.07;;;;;;;;;;5054970;28;20436;-82
2022/05/01 09:40:54;;;;;;;23.83;22.53;;;;;;;;;;5054506;28;20838;-79
2022/05/01 09:43:35;;;;;;;24.30;22.97;;;;;;;;;;5054350;28;20453;-81
2022/05/01 09:46:16;;;;;;;25.50;24.00;;;;;;;;;;5055115;28;20476;-82
2022/05/01 09:48:44;;;;;;;25.20;23.60;;;;;;;;;;5054514;28;20450;-82
2022/05/01 09:51:18;;;;;;;24.97;23.43;;;;;;;;;;5057374;28;20465;-82
2022/05/01 09:53:46;;;;;;;25.40;23.70;;;;;;;;;;5074873;28;20451;-82
2022/05/01 09:56:13;;;;;;;25.47;23.57;;;;;;;;;;5074357;28;20470;-82
2022/05/01 09:58:43;;;;;;;24.87;23.17;;;;;;;;;;5074607;28;20545;-81
2022/05/01 10:01:11;;;;;;;24.87;23.27;;;;;;;;;;5074525;28;20420;-82
2022/05/01 10:03:40;;;;;;;25.37;23.77;;;;;;;;;;5073794;28;20470;-82
2022/05/01 10:06:10;;;;;;;25.33;23.70;;;;;;;;;;5074538;28;21060;-82
2022/05/01 10:08:38;;;;;;;25.03;23.33;;;;;;;;;;5074143;28;20452;-82
2022/05/01 10:11:06;;;;;;;24.80;23.20;;;;;;;;;;5074242;28;20445;-82
2022/05/01 10:13:33;;;;;;;25.17;23.77;;;;;;;;;;5074063;28;20527;-82
2022/05/01 10:16:06;;;;;;;25.80;24.10;;;;;;;;;;5074232;28;20424;-81
2022/05/01 10:18:33;;;;;;;25.57;23.90;;;;;;;;;;5072616;28;20446;-82
2022/05/01 10:21:00;;;;;;;26.23;24.63;;;;;;;;;;5071923;28;20447;-80
2022/05/01 10:23:28;;;;;;;25.20;23.73;;;;;;;;;;5073802;28;20473;-80
2022/05/01 10:25:57;;;;;;;25.00;23.50;;;;;;;;;;5073585;28;20883;-80
2022/05/01 10:28:31;;;;;;;25.57;23.97;;;;;;;;;;5073757;28;20428;-79
2022/05/01 10:34:01;;;;;;;25.30;23.80;;;;;;;;;;5039294;28;20445;-79
2022/05/01 10:36:36;;;;;;;25.37;23.77;;;;;;;;;;5073982;28;20435;-79
2022/05/01 10:39:07;;;;;;;26.50;24.90;;;;;;;;;;5073585;28;20419;-78
2022/05/01 10:41:34;;;;;;;26.77;25.07;;;;;;;;;;5073578;28;20446;-79
2022/05/01 10:44:03;;;;;;;25.27;23.83;;;;;;;;;;5073225;28;20853;-80
2022/05/01 10:46:31;;;;;;;25.87;24.07;;;;;;;;;;5073326;28;20496;-79
2022/05/01 10:49:05;;;;;;;26.60;24.70;;;;;;;;;;5072941;28;20969;-80
2022/05/01 10:51:53;;;;;;;25.40;23.77;;;;;;;;;;5073417;28;20474;-80
2022/05/01 10:54:37;;;;;;;26.37;24.67;;;;;;;;;;5071391;28;20469;-79
2022/05/01 10:57:09;;;;;;;24.90;23.40;;;;;;;;;;5072891;28;20508;-79
2022/05/01 10:59:38;;;;;;;26.20;24.50;;;;;;;;;;5072855;28;20442;-79
2022/05/01 11:02:07;;;;;;;26.70;25.00;;;;;;;;;;5073089;28;20761;-79
2022/05/01 11:04:42;;;;;;;26.20;24.50;;;;;;;;;;5073308;28;20456;-78
2022/05/01 11:07:10;;;;;;;26.77;25.17;;;;;;;;;;5073179;28;20417;-79
2022/05/01 11:09:38;;;;;;;26.13;24.53;;;;;;;;;;5072776;28;20449;-79
2022/05/01 11:12:08;;;;;;;26.70;25.00;;;;;;;;;;5073175;28;20445;-79
2022/05/01 11:14:35;;;;;;;26.57;24.90;;;;;;;;;;5073195;28;20441;-83
2022/05/01 11:17:03;;;;;;;25.73;24.23;;;;;;;;;;5073545;28;20435;-83
2022/05/01 11:19:31;;;;;;;26.20;24.60;;;;;;;;;;5073155;28;20413;-83
2022/05/01 11:22:00;;;;;;;26.43;24.83;;;;;;;;;;5073315;28;20483;-83
2022/05/01 11:24:43;;;;;;;26.07;24.47;;;;;;;;;;5073092;28;20894;-83
2022/05/01 11:27:14;;;;;;;26.50;24.90;;;;;;;;;;5073130;28;20463;-83
2022/05/01 11:30:01;;;;;;;26.50;24.90;;;;;;;;;;5073262;28;20466;-83
2022/05/01 11:32:43;;;;;;;25.07;23.60;;;;;;;;;;5071542;28;20795;-83
2022/05/01 11:35:12;;;;;;;26.53;25.00;;;;;;;;;;5071545;28;20910;-83
2022/05/01 11:37:49;;;;;;;25.70;24.30;;;;;;;;;;5072966;28;20868;-83
2022/05/01 11:40:31;;;;;;;26.00;24.40;;;;;;;;;;5073033;28;20445;-83
2022/05/01 11:43:17;;;;;;;25.77;24.17;;;;;;;;;;5071938;28;20436;-83
2022/05/01 11:45:46;;;;;;;27.77;26.13;;;;;;;;;;5073045;28;20421;-83
2022/05/01 11:48:14;;;;;;;25.90;24.50;;;;;;;;;;5072639;28;20446;-82
2022/05/01 11:50:42;;;;;;;27.20;25.20;;;;;;;;;;5073530;28;20467;-86
2022/05/01 11:53:18;;;;;;;26.23;24.60;;;;;;;;;;5073783;28;20462;-87
2022/05/01 12:03:58;;;;;;;26.13;24.43;;;;;;;;;;5081289;28;20474;-86
2022/05/01 12:06:26;;;;;;;25.70;23.97;;;;;;;;;;5089516;28;20425;-86
2022/05/01 12:08:55;;;;;;;27.33;25.57;;;;;;;;;;5081083;28;20405;-86
2022/05/01 12:11:29;;;;;;;26.53;24.93;;;;;;;;;;5074031;28;20431;-86
2022/05/01 12:14:06;;;;;;;28.70;26.90;;;;;;;;;;5073716;28;20416;-85
2022/05/01 12:16:34;;;;;;;27.17;25.67;;;;;;;;;;5073381;28;20492;-86
2022/05/01 12:19:04;;;;;;;26.40;24.70;;;;;;;;;;5071892;28;20443;-90
2022/05/01 12:21:32;;;;;;;27.87;26.00;;;;;;;;;;5073796;28;20456;-90
2022/05/01 12:24:04;;;;;;;28.00;26.40;;;;;;;;;;5073560;28;20465;-92
2022/05/01 12:26:33;;;;;;;26.47;24.97;;;;;;;;;;5054733;28;20470;-95
2022/05/01 12:29:00;;;;;;;27.27;25.73;;;;;;;;;;5055354;28;20418;-95
2022/05/01 12:31:28;;;;;;;27.77;26.27;;;;;;;;;;5053176;28;20439;-84
2022/05/01 12:33:55;;;;;;;27.77;26.17;;;;;;;;;;5052667;28;20463;-84
2022/05/01 12:36:27;;;;;;;27.87;26.07;;;;;;;;;;5052353;28;20413;-84
2022/05/01 12:39:05;;;;;;;28.10;26.50;;;;;;;;;;5052632;28;20443;-84
2022/05/01 12:44:17;;;;;;;26.73;25.13;;;;;;;;;;5053577;28;20462;-83
2022/05/01 12:46:53;;;;;;;26.37;24.47;;;;;;;;;;5054981;28;20488;-84
2022/05/01 12:49:27;;;;;;;27.03;25.17;;;;;;;;;;5055994;28;20410;-84
2022/05/01 12:51:55;;;;;;;26.30;24.80;;;;;;;;;;5064594;28;20989;-83
2022/05/01 12:54:24;;;;;;;26.70;25.07;;;;;;;;;;5075883;28;20512;-84
2022/05/01 12:56:51;;;;;;;27.97;26.30;;;;;;;;;;5075305;28;20460;-83
2022/05/01 12:59:30;;;;;;;25.40;23.77;;;;;;;;;;5075657;28;20411;-84
2022/05/01 13:01:57;;;;;;;26.23;24.70;;;;;;;;;;5075855;28;20492;-83
2022/05/01 13:04:26;;;;;;;26.80;25.00;;;;;;;;;;5075179;28;20495;-92
2022/05/01 13:06:53;;;;;;;26.40;24.73;;;;;;;;;;5076164;28;20405;-96
2022/05/01 13:09:21;;;;;;;26.87;25.27;;;;;;;;;;5076433;28;20799;-91
2022/05/01 13:12:04;;;;;;;26.70;25.10;;;;;;;;;;5076568;28;20467;-90
2022/05/01 13:14:33;;;;;;;27.10;25.37;;;;;;;;;;5076898;28;20528;-94
2022/05/01 13:17:11;;;;;;;27.33;25.70;;;;;;;;;;5078404;28;20437;-93
2022/05/01 13:19:39;;;;;;;28.00;26.23;;;;;;;;;;5076054;28;20673;-96
2022/05/01 13:22:07;;;;;;;28.80;27.10;;;;;;;;;;5074568;28;20442;-95
2022/05/01 13:24:35;;;;;;;27.43;25.63;;;;;;;;;;5059654;28;20493;-84
2022/05/01 13:27:04;;;;;;;26.83;25.30;;;;;;;;;;5059258;28;20460;-84
2022/05/01 13:29:32;;;;;;;27.27;25.40;;;;;;;;;;5055415;28;20449;-84
2022/05/01 13:32:01;;;;;;;26.90;25.30;;;;;;;;;;5054909;28;20431;-84
2022/05/01 13:34:28;;;;;;;27.23;25.53;;;;;;;;;;5055109;28;20447;-84
2022/05/01 13:36:56;;;;;;;26.13;24.70;;;;;;;;;;5054138;28;20452;-84
2022/05/01 13:44:44;;;;;;;27.70;26.10;;;;;;;;;;5053994;28;20425;-84
2022/05/01 13:44:58;;;;;;;26.37;24.83;;;;;;;;;;5075065;28;20448;-84
2022/05/01 13:47:25;;;;;;;26.27;24.60;;;;;;;;;;5075500;28;20445;-84
2022/05/01 13:49:53;;;;;;;26.97;25.27;;;;;;;;;;5074949;28;20462;-84
2022/05/01 13:52:21;;;;;;;26.50;24.53;;;;;;;;;;5074989;28;20440;-83
2022/05/01 13:54:48;;;;;;;25.60;24.13;;;;;;;;;;5074767;28;20437;-84
2022/05/01 13:57:19;;;;;;;24.60;23.10;;;;;;;;;;5074006;28;20453;-83
2022/05/01 13:59:46;;;;;;;26.20;24.67;;;;;;;;;;5075131;28;20441;-86
2022/05/01 14:02:14;;;;;;;25.60;24.00;;;;;;;;;;5055182;28;20927;-90
2022/05/01 14:04:42;;;;;;;25.80;24.20;;;;;;;;;;5055632;28;20454;-95
2022/05/01 14:07:09;;;;;;;26.90;25.20;;;;;;;;;;5054767;28;20448;-85
2022/05/01 14:09:36;;;;;;;25.33;23.80;;;;;;;;;;5054845;28;20443;-84
2022/05/01 14:12:06;;;;;;;26.47;24.77;;;;;;;;;;5054471;28;20420;-83
2022/05/01 14:14:35;;;;;;;27.10;25.23;;;;;;;;;;5054690;28;20537;-85
2022/05/01 14:17:02;;;;;;;27.47;25.47;;;;;;;;;;5054495;28;20413;-84
2022/05/01 14:19:30;;;;;;;26.83;25.17;;;;;;;;;;5054421;28;20463;-84
2022/05/01 14:21:59;;;;;;;25.73;24.23;;;;;;;;;;5054182;28;20927;-84
2022/05/01 14:24:26;;;;;;;26.47;24.97;;;;;;;;;;5069496;28;20453;-85
2022/05/01 14:26:54;;;;;;;26.20;24.60;;;;;;;;;;5054228;28;20434;-85
2022/05/01 14:29:22;;;;;;;26.80;24.90;;;;;;;;;;5054483;28;20444;-85
2022/05/01 14:31:53;;;;;;;26.83;25.00;;;;;;;;;;5054350;28;20474;-84
2022/05/01 14:34:24;;;;;;;27.07;25.10;;;;;;;;;;5054335;28;20406;-84
2022/05/01 14:36:53;;;;;;;25.77;24.10;;;;;;;;;;5054258;28;20472;-84
2022/05/01 14:39:22;;;;;;;27.30;25.17;;;;;;;;;;5054735;28;20415;-83
2022/05/01 14:41:50;;;;;;;26.27;24.77;;;;;;;;;;5055681;28;20447;-86
2022/05/01 14:44:21;;;;;;;26.70;24.83;;;;;;;;;;5054791;28;20849;-85
2022/05/01 14:46:50;;;;;;;26.13;24.53;;;;;;;;;;5069371;28;20425;-85
2022/05/01 14:49:36;;;;;;;27.80;26.20;;;;;;;;;;5053901;28;20456;-85
2022/05/01 14:52:04;;;;;;;26.87;25.30;;;;;;;;;;5069176;28;20982;-84
2022/05/01 14:54:33;;;;;;;26.23;24.63;;;;;;;;;;5053932;28;20421;-84
2022/05/01 14:57:02;;;;;;;25.50;24.07;;;;;;;;;;5053766;28;20835;-85
2022/05/01 15:07:53;;;;;;;27.37;25.57;;;;;;;;;;5053627;28;20777;-85
2022/05/01 15:10:21;;;;;;;26.10;24.50;;;;;;;;;;5054073;28;20812;-85
2022/05/01 15:12:49;;;;;;;25.60;24.00;;;;;;;;;;5053521;28;20517;-85